Berit — ZDHX2 — position and weather

sailwx.info

Track history (hours):
 
Tides and Currents Weather Stations Pressure Air Temp Water Temp Dewpoint Dewpoint Depression Visibility Wind Speed Wind Dir Waves Ship Positions

Berit

Last reported at 2015-Jan-30 16:14 UTC. Time now 2015-Feb-01 13:18 UTC.
Position N 57°12' W 001°44'.

Length 83 m; draft 4.8 m.

Type: Cargo ship. MMSI: 236386000.

Date/timePositionNaut miles runAvg speedWind from/ knotsBaromVisibWave heightAir tempDewpointWater temp
2015-Jan-30 16:14N 57°12' W 001°44'6 8.4
2015-Jan-30 15:33N 57°17' W 001°38'8 8.3
2015-Jan-30 14:34N 57°23' W 001°30'8 7.9
2015-Jan-30 13:33N 57°30' W 001°20'  
2015-Jan-25 12:19N 59°06' E 005°11'7 6.3
2015-Jan-25 11:17N 59°07' E 005°24'5 7.4
2015-Jan-25 10:34N 59°05' E 005°33'9 8.8
2015-Jan-25 09:34N 58°59' E 005°47'2 2.3
2015-Jan-25 08:33N 58°57' E 005°45'0 0.0
2015-Jan-25 07:24N 58°57' E 005°45'0 0.0
2015-Jan-25 06:33N 58°57' E 005°45'0 0.0
2015-Jan-25 05:33N 58°57' E 005°45'0 0.0
2015-Jan-25 04:33N 58°57' E 005°45'0 0.0
2015-Jan-25 03:33N 58°57' E 005°45'0 0.0
2015-Jan-25 02:33N 58°57' E 005°45'0 0.0
2015-Jan-25 01:33N 58°57' E 005°45'0 0.0
2015-Jan-25 00:33N 58°57' E 005°45'0 0.0
2015-Jan-24 23:33N 58°57' E 005°45'0 0.0
2015-Jan-24 22:33N 58°57' E 005°45'0 0.0
2015-Jan-24 21:33N 58°57' E 005°45'0 0.0
2015-Jan-24 20:33N 58°57' E 005°45'0 0.0
2015-Jan-24 19:33N 58°57' E 005°45'0 0.0
2015-Jan-24 18:33N 58°57' E 005°45'0 0.0
2015-Jan-24 17:33N 58°57' E 005°45'0 0.0
2015-Jan-24 16:33N 58°57' E 005°45'0 0.0
2015-Jan-24 15:33N 58°57' E 005°45'0 0.0
2015-Jan-24 14:33N 58°57' E 005°45'0 0.0
2015-Jan-24 13:33N 58°57' E 005°45'0 0.0
2015-Jan-24 12:33N 58°57' E 005°45'0 0.0
2015-Jan-24 11:33N 58°57' E 005°45'0 0.0
2015-Jan-24 10:33N 58°57' E 005°45'0 0.0
2015-Jan-24 09:33N 58°57' E 005°45'0 0.0
2015-Jan-24 08:33N 58°57' E 005°45'0 0.0
2015-Jan-24 07:33N 58°57' E 005°45'0 0.0
2015-Jan-24 06:33N 58°57' E 005°45'0 0.0
2015-Jan-24 05:33N 58°57' E 005°45'0 0.0
2015-Jan-24 04:33N 58°57' E 005°45'0 0.0
2015-Jan-24 03:33N 58°57' E 005°45'0 0.0
2015-Jan-24 02:33N 58°57' E 005°45'0 0.0
2015-Jan-24 01:33N 58°57' E 005°45'0 0.0
2015-Jan-24 00:33N 58°57' E 005°45'0 0.0
2015-Jan-23 23:33N 58°57' E 005°45'0 0.0
2015-Jan-23 22:33N 58°57' E 005°45'0 0.0
2015-Jan-23 21:33N 58°57' E 005°45'0 0.0
2015-Jan-23 20:33N 58°57' E 005°45'0 0.0
2015-Jan-23 19:33N 58°57' E 005°45'0 0.0
2015-Jan-23 18:33N 58°57' E 005°45'0 0.0
2015-Jan-23 17:31N 58°57' E 005°45'0 0.0
2015-Jan-23 16:31N 58°57' E 005°45'0 0.0
2015-Jan-23 15:31N 58°57' E 005°45'0 0.0
2015-Jan-23 14:31N 58°57' E 005°45'0 0.0
2015-Jan-23 13:31N 58°57' E 005°45'0 0.0
2015-Jan-23 12:31N 58°57' E 005°45'0 0.0
2015-Jan-23 11:31N 58°57' E 005°45'0 0.0
2015-Jan-23 10:31N 58°57' E 005°45'0 0.0
2015-Jan-23 09:31N 58°57' E 005°45'0 0.0
2015-Jan-23 08:31N 58°57' E 005°45'0 0.0
2015-Jan-23 07:31N 58°57' E 005°45'0 0.0
2015-Jan-23 06:31N 58°57' E 005°45'0 0.0
2015-Jan-23 05:31N 58°57' E 005°45'0 0.0
2015-Jan-23 04:28N 58°57' E 005°45'0 0.0
2015-Jan-23 03:28N 58°57' E 005°45'0 0.0
2015-Jan-23 02:31N 58°57' E 005°45'0 0.0
2015-Jan-23 01:31N 58°57' E 005°45'0 0.0
2015-Jan-23 00:31N 58°57' E 005°45'0 0.0
2015-Jan-22 23:31N 58°57' E 005°45'0 0.0
2015-Jan-22 22:31N 58°57' E 005°45'0 0.0
2015-Jan-22 21:28N 58°57' E 005°45'0 0.1
2015-Jan-22 20:31N 58°57' E 005°45'0 0.0
2015-Jan-22 19:33N 58°57' E 005°45'5 4.8
2015-Jan-22 18:33N 59°01' E 005°42'6 6.3
2015-Jan-22 17:33N 58°57' E 005°33'8 8.2
2015-Jan-22 16:33N 58°49' E 005°26'273 8.8
2015-Jan-21 09:30N 54°16' E 005°04'11 9.9
2015-Jan-21 08:23N 54°05' E 004°58'3010.0
2015-Jan-21 05:23N 53°36' E 004°50'1110.9
2015-Jan-21 04:25N 53°26' E 004°42'2211.2
2015-Jan-21 02:26N 53°06' E 004°27'1010.0
2015-Jan-21 01:29N 52°57' E 004°20'9 9.5
2015-Jan-21 00:33N 52°49' E 004°13'29 8.6
2015-Jan-20 21:09N 52°23' E 003°53'5 8.3
2015-Jan-20 20:31N 52°17' E 003°52'8 8.7
2015-Jan-20 19:33N 52°09' E 003°54'8 7.7
2015-Jan-20 18:33N 52°02' E 003°56'1211.6
2015-Jan-20 17:33N 51°56' E 004°13'9 8.7
2015-Jan-20 16:32N 51°53' E 004°27'  
Track history (hours):
 
Tides and Currents Weather Stations Pressure Air Temp Water Temp Dewpoint Dewpoint Depression Visibility Wind Speed Wind Dir Waves Ship Positions

Berit

Last reported at 2015-Jan-30 16:14 UTC. Time now 2015-Feb-01 13:18 UTC.
Position N 57°12' W 001°44'.

Length 83 m; draft 4.8 m.

Type: Cargo ship. MMSI: 236386000.

Date/timePositionNaut miles runAvg speedWind from/ knotsBaromVisibWave heightAir tempDewpointWater temp
2015-Jan-30 16:14N 57°12' W 001°44'6 8.4
2015-Jan-30 15:33N 57°17' W 001°38'8 8.3
2015-Jan-30 14:34N 57°23' W 001°30'8 7.9
2015-Jan-30 13:33N 57°30' W 001°20'  
2015-Jan-25 12:19N 59°06' E 005°11'7 6.3
2015-Jan-25 11:17N 59°07' E 005°24'5 7.4
2015-Jan-25 10:34N 59°05' E 005°33'9 8.8
2015-Jan-25 09:34N 58°59' E 005°47'2 2.3
2015-Jan-25 08:33N 58°57' E 005°45'0 0.0
2015-Jan-25 07:24N 58°57' E 005°45'0 0.0
2015-Jan-25 06:33N 58°57' E 005°45'0 0.0
2015-Jan-25 05:33N 58°57' E 005°45'0 0.0
2015-Jan-25 04:33N 58°57' E 005°45'0 0.0
2015-Jan-25 03:33N 58°57' E 005°45'0 0.0
2015-Jan-25 02:33N 58°57' E 005°45'0 0.0
2015-Jan-25 01:33N 58°57' E 005°45'0 0.0
2015-Jan-25 00:33N 58°57' E 005°45'0 0.0
2015-Jan-24 23:33N 58°57' E 005°45'0 0.0
2015-Jan-24 22:33N 58°57' E 005°45'0 0.0
2015-Jan-24 21:33N 58°57' E 005°45'0 0.0
2015-Jan-24 20:33N 58°57' E 005°45'0 0.0
2015-Jan-24 19:33N 58°57' E 005°45'0 0.0
2015-Jan-24 18:33N 58°57' E 005°45'0 0.0
2015-Jan-24 17:33N 58°57' E 005°45'0 0.0
2015-Jan-24 16:33N 58°57' E 005°45'0 0.0
2015-Jan-24 15:33N 58°57' E 005°45'0 0.0
2015-Jan-24 14:33N 58°57' E 005°45'0 0.0
2015-Jan-24 13:33N 58°57' E 005°45'0 0.0
2015-Jan-24 12:33N 58°57' E 005°45'0 0.0
2015-Jan-24 11:33N 58°57' E 005°45'0 0.0
2015-Jan-24 10:33N 58°57' E 005°45'0 0.0
2015-Jan-24 09:33N 58°57' E 005°45'0 0.0
2015-Jan-24 08:33N 58°57' E 005°45'0 0.0
2015-Jan-24 07:33N 58°57' E 005°45'0 0.0
2015-Jan-24 06:33N 58°57' E 005°45'0 0.0
2015-Jan-24 05:33N 58°57' E 005°45'0 0.0
2015-Jan-24 04:33N 58°57' E 005°45'0 0.0
2015-Jan-24 03:33N 58°57' E 005°45'0 0.0
2015-Jan-24 02:33N 58°57' E 005°45'0 0.0
2015-Jan-24 01:33N 58°57' E 005°45'0 0.0
2015-Jan-24 00:33N 58°57' E 005°45'0 0.0
2015-Jan-23 23:33N 58°57' E 005°45'0 0.0
2015-Jan-23 22:33N 58°57' E 005°45'0 0.0
2015-Jan-23 21:33N 58°57' E 005°45'0 0.0
2015-Jan-23 20:33N 58°57' E 005°45'0 0.0
2015-Jan-23 19:33N 58°57' E 005°45'0 0.0
2015-Jan-23 18:33N 58°57' E 005°45'0 0.0
2015-Jan-23 17:31N 58°57' E 005°45'0 0.0
2015-Jan-23 16:31N 58°57' E 005°45'0 0.0
2015-Jan-23 15:31N 58°57' E 005°45'0 0.0
2015-Jan-23 14:31N 58°57' E 005°45'0 0.0
2015-Jan-23 13:31N 58°57' E 005°45'0 0.0
2015-Jan-23 12:31N 58°57' E 005°45'0 0.0
2015-Jan-23 11:31N 58°57' E 005°45'0 0.0
2015-Jan-23 10:31N 58°57' E 005°45'0 0.0
2015-Jan-23 09:31N 58°57' E 005°45'0 0.0
2015-Jan-23 08:31N 58°57' E 005°45'0 0.0
2015-Jan-23 07:31N 58°57' E 005°45'0 0.0
2015-Jan-23 06:31N 58°57' E 005°45'0 0.0
2015-Jan-23 05:31N 58°57' E 005°45'0 0.0
2015-Jan-23 04:28N 58°57' E 005°45'0 0.0
2015-Jan-23 03:28N 58°57' E 005°45'0 0.0
2015-Jan-23 02:31N 58°57' E 005°45'0 0.0
2015-Jan-23 01:31N 58°57' E 005°45'0 0.0
2015-Jan-23 00:31N 58°57' E 005°45'0 0.0
2015-Jan-22 23:31N 58°57' E 005°45'0 0.0
2015-Jan-22 22:31N 58°57' E 005°45'0 0.0
2015-Jan-22 21:28N 58°57' E 005°45'0 0.1
2015-Jan-22 20:31N 58°57' E 005°45'0 0.0
2015-Jan-22 19:33N 58°57' E 005°45'5 4.8
2015-Jan-22 18:33N 59°01' E 005°42'6 6.3
2015-Jan-22 17:33N 58°57' E 005°33'8 8.2
2015-Jan-22 16:33N 58°49' E 005°26'273 8.8
2015-Jan-21 09:30N 54°16' E 005°04'11 9.9
2015-Jan-21 08:23N 54°05' E 004°58'3010.0
2015-Jan-21 05:23N 53°36' E 004°50'1110.9
2015-Jan-21 04:25N 53°26' E 004°42'2211.2
2015-Jan-21 02:26N 53°06' E 004°27'1010.0
2015-Jan-21 01:29N 52°57' E 004°20'9 9.5
2015-Jan-21 00:33N 52°49' E 004°13'29 8.6
2015-Jan-20 21:09N 52°23' E 003°53'5 8.3
2015-Jan-20 20:31N 52°17' E 003°52'8 8.7
2015-Jan-20 19:33N 52°09' E 003°54'8 7.7
2015-Jan-20 18:33N 52°02' E 003°56'1211.6
2015-Jan-20 17:33N 51°56' E 004°13'9 8.7
2015-Jan-20 16:32N 51°53' E 004°27'  

Dump ship's entire track history